createdAt,value
2019-01-11T00:03:43.080Z,101956.36
2019-01-11T00:08:47.154Z,101951.85
2019-01-11T00:13:51.511Z,101945.95
2019-01-11T00:18:55.934Z,101946.45
2019-01-11T00:23:59.981Z,101944.98
2019-01-11T00:29:04.361Z,101937.81
2019-01-11T00:34:08.402Z,101932.59
2019-01-11T00:39:12.749Z,101926.31
2019-01-11T00:44:16.819Z,101925.33
2019-01-11T00:49:20.880Z,101925.02
2019-01-11T00:54:26.047Z,101922.37
2019-01-11T00:59:30.103Z,101921.97
2019-01-11T01:04:34.158Z,101914.56
2019-01-11T01:09:38.154Z,101914.69
2019-01-11T01:14:42.309Z,101914.69
2019-01-11T01:19:48.556Z,101903.77
2019-01-11T01:24:52.964Z,101906.71
2019-01-11T01:29:57.079Z,101897.98
2019-01-11T01:35:01.435Z,101890.13
2019-01-11T01:40:06.614Z,101899.50
2019-01-11T01:45:12.323Z,101901.07
2019-01-11T01:50:16.390Z,101904.73
2019-01-11T01:55:20.433Z,101896.66
2019-01-11T02:00:24.770Z,101888.75
2019-01-11T02:05:28.906Z,101881.33
2019-01-11T02:10:33.367Z,101877.16
2019-01-11T02:15:37.423Z,101871.27
2019-01-11T02:20:41.746Z,101864.91
2019-01-11T02:25:46.393Z,101862.75
2019-01-11T02:30:50.450Z,101856.56
2019-01-11T02:35:54.517Z,101862.92
2019-01-11T02:40:59.139Z,101847.45
2019-01-11T02:46:03.942Z,101846.73
2019-01-11T02:51:08.085Z,101831.50
2019-01-11T02:56:12.432Z,101827.71
2019-01-11T03:01:16.478Z,101825.38
2019-01-11T03:06:20.791Z,101813.07
2019-01-11T03:11:25.397Z,101802.31
2019-01-11T03:16:29.424Z,101803.92
2019-01-11T03:21:33.468Z,101789.84
2019-01-11T03:26:37.534Z,101780.00
2019-01-11T03:31:41.596Z,101767.17
2019-01-11T03:36:45.645Z,101756.56
2019-01-11T03:41:49.716Z,101741.07
2019-01-11T03:46:53.773Z,101737.30
2019-01-11T03:51:57.823Z,101735.25
2019-01-11T03:57:01.856Z,101723.72
2019-01-11T04:02:05.892Z,101710.97
2019-01-11T04:07:10.028Z,101715.84
2019-01-11T04:12:14.044Z,101711.27
2019-01-11T04:17:18.068Z,101710.42
2019-01-11T04:22:22.237Z,101705.62
2019-01-11T04:27:26.575Z,101695.09
2019-01-11T04:32:30.642Z,101690.35
2019-01-11T04:37:34.687Z,101684.56
2019-01-11T04:42:39.049Z,101669.31
2019-01-11T04:47:43.101Z,101662.58
2019-01-11T04:52:47.437Z,101652.34
2019-01-11T04:57:51.497Z,101649.95
2019-01-11T05:02:55.574Z,101643.30
2019-01-11T05:07:59.608Z,101639.97
2019-01-11T05:13:03.635Z,101630.07
2019-01-11T05:18:07.709Z,101622.53
2019-01-11T05:23:11.820Z,101613.62
2019-01-11T05:28:16.020Z,101601.80
2019-01-11T05:33:20.378Z,101596.92
2019-01-11T05:38:24.551Z,101584.52
2019-01-11T05:43:28.598Z,101585.61
2019-01-11T05:48:32.934Z,101584.44
2019-01-11T05:53:37.411Z,101574.30
2019-01-11T05:58:41.913Z,101566.41
2019-01-11T06:03:46.013Z,101563.78
2019-01-11T06:08:50.131Z,101558.58
2019-01-11T06:13:54.171Z,101546.81
2019-01-11T06:18:58.365Z,101544.39
2019-01-11T06:24:02.463Z,101536.03
2019-01-11T06:29:07.009Z,101536.73
2019-01-11T06:34:11.617Z,101532.78
2019-01-11T06:39:17.603Z,101525.22
2019-01-11T06:44:22.749Z,101522.93
2019-01-11T06:49:28.934Z,101513.33
2019-01-11T06:54:33.238Z,101511.13
2019-01-11T06:59:37.625Z,101499.17
2019-01-11T07:04:41.727Z,101493.30
2019-01-11T07:09:46.075Z,101497.78
2019-01-11T07:14:51.997Z,101499.70
2019-01-11T07:19:56.108Z,101499.23
2019-01-11T07:25:00.515Z,101499.52
2019-01-11T07:30:05.934Z,101502.75
2019-01-11T07:35:10.311Z,101498.59
2019-01-11T07:40:14.737Z,101491.34
2019-01-11T07:45:18.801Z,101485.17
2019-01-11T07:50:22.830Z,101481.61
2019-01-11T07:55:27.087Z,101480.16
2019-01-11T08:00:31.141Z,101478.33
2019-01-11T08:05:35.195Z,101484.13
2019-01-11T08:10:39.509Z,101477.19
2019-01-11T08:15:43.598Z,101473.91
2019-01-11T08:20:47.631Z,101473.66
2019-01-11T08:25:51.712Z,101463.86
2019-01-11T08:30:55.823Z,101461.08
2019-01-11T08:35:59.930Z,101446.74
2019-01-11T08:41:04.075Z,101435.02
2019-01-11T08:46:08.510Z,101438.89
2019-01-11T08:51:12.546Z,101442.11
2019-01-11T08:56:16.982Z,101432.05
2019-01-11T09:01:21.050Z,101421.23
2019-01-11T09:06:25.078Z,101415.16
2019-01-11T09:11:29.139Z,101411.47
2019-01-11T09:16:34.658Z,101406.13
2019-01-11T09:21:41.757Z,101410.27
2019-01-11T09:26:44.530Z,101405.55
2019-01-11T09:31:48.580Z,101393.88
2019-01-11T09:36:54.812Z,101380.52
2019-01-11T09:41:58.820Z,101386.28
2019-01-11T09:47:02.916Z,101376.02
2019-01-11T09:52:06.925Z,101370.39
2019-01-11T09:57:11.021Z,101365.80
2019-01-11T10:02:15.042Z,101360.88
2019-01-11T10:07:19.268Z,101352.70
2019-01-11T10:12:23.568Z,101353.72
2019-01-11T10:17:27.638Z,101352.79
2019-01-11T10:22:31.616Z,101337.34
2019-01-11T10:27:35.715Z,101331.31
2019-01-11T10:32:39.755Z,101317.66
2019-01-11T10:37:43.781Z,101307.59
2019-01-11T10:42:47.985Z,101296.88
2019-01-11T10:47:51.995Z,101281.33
2019-01-11T10:52:56.091Z,101277.81
2019-01-11T10:58:00.151Z,101268.76
2019-01-11T11:03:04.325Z,101268.17
2019-01-11T11:08:08.345Z,101261.11
2019-01-11T11:13:12.525Z,101247.02
2019-01-11T11:18:16.576Z,101240.98
2019-01-11T11:23:20.619Z,101234.39
2019-01-11T11:28:24.891Z,101245.79
2019-01-11T11:33:29.012Z,101231.75
2019-01-11T11:38:33.136Z,101216.70
2019-01-11T11:43:37.139Z,101205.32
2019-01-11T11:48:41.162Z,101204.44
2019-01-11T11:53:45.191Z,101189.39
2019-01-11T11:58:49.233Z,101179.52
2019-01-11T12:03:53.288Z,101166.48
2019-01-11T12:08:57.361Z,101152.81
2019-01-11T12:14:01.421Z,101132.63
2019-01-11T12:19:05.471Z,101137.25
2019-01-11T12:24:09.808Z,101126.83
2019-01-11T12:29:13.839Z,101100.63
2019-01-11T12:34:17.900Z,101100.69
2019-01-11T12:39:22.125Z,101081.02
2019-01-11T12:44:26.306Z,101074.45
2019-01-11T12:49:30.440Z,101077.75
2019-01-11T12:54:35.890Z,101066.74
2019-01-11T12:59:39.904Z,101061.73
2019-01-11T13:04:44.011Z,101052.38
2019-01-11T13:09:48.143Z,101042.80
2019-01-11T13:14:52.182Z,101028.32
2019-01-11T13:19:56.225Z,101032.45
2019-01-11T13:25:00.562Z,101023.20
2019-01-11T13:30:06.267Z,101021.52
2019-01-11T13:35:10.432Z,101010.58
2019-01-11T13:40:20.041Z,101001.69
2019-01-11T13:45:24.436Z,101006.63
2019-01-11T13:50:36.154Z,100987.97
2019-01-11T13:55:40.182Z,100995.08
2019-01-11T14:00:44.191Z,100996.78
2019-01-11T14:05:48.258Z,100986.88
2019-01-11T14:10:52.289Z,100984.59
2019-01-11T14:15:56.358Z,100977.39
2019-01-11T14:21:01.268Z,100974.86
2019-01-11T14:26:05.309Z,100988.95
2019-01-11T14:31:09.326Z,100988.23
2019-01-11T14:36:13.444Z,100974.86
2019-01-11T14:41:17.502Z,100974.48
2019-01-11T14:46:21.588Z,100985.56
2019-01-11T14:51:25.862Z,100970.89
2019-01-11T14:56:29.922Z,100963.17
2019-01-11T15:01:33.956Z,100956.30
2019-01-11T15:06:38.256Z,100963.28
2019-01-11T15:11:42.840Z,100955.77
2019-01-11T15:16:47.131Z,100959.16
2019-01-11T15:21:51.221Z,100949.61
2019-01-11T15:26:55.616Z,100939.13
2019-01-11T15:31:59.894Z,100932.00
2019-01-11T15:37:04.034Z,100935.02
2019-01-11T15:42:08.109Z,100941.48
2019-01-11T15:47:12.267Z,100925.67
2019-01-11T15:52:16.385Z,100919.99
2019-01-11T15:57:23.161Z,100920.61
2019-01-11T16:02:27.188Z,100916.94
2019-01-11T16:07:31.228Z,100898.86
2019-01-11T16:12:54.047Z,100900.63
2019-01-11T16:18:01.121Z,100896.40
2019-01-11T16:23:05.439Z,100895.51
2019-01-11T16:28:09.806Z,100884.30
2019-01-11T16:33:13.993Z,100891.95
2019-01-11T16:38:18.093Z,100892.08
2019-01-11T16:43:22.154Z,100888.19
2019-01-11T16:48:26.508Z,100885.59
2019-01-11T16:53:30.561Z,100882.19
2019-01-11T16:58:35.020Z,100893.07
2019-01-11T17:03:39.031Z,100899.28
2019-01-11T17:08:43.065Z,100896.38
2019-01-11T17:13:47.413Z,100894.42
2019-01-11T17:18:51.505Z,100896.23
2019-01-11T17:23:55.773Z,100891.13
2019-01-11T17:28:59.898Z,100892.14
2019-01-11T17:34:04.629Z,100896.64
2019-01-11T17:39:09.024Z,100898.90
2019-01-11T17:44:13.085Z,100900.43
2019-01-11T17:49:17.189Z,100897.50
2019-01-11T17:54:21.789Z,100905.47
2019-01-11T17:59:25.838Z,100909.77
2019-01-11T18:04:29.935Z,100899.55
2019-01-11T18:09:33.948Z,100899.91
2019-01-11T18:14:38.010Z,100903.02
2019-01-11T18:19:42.377Z,100913.72
2019-01-11T18:24:46.559Z,100910.91
2019-01-11T18:29:50.834Z,100913.08
2019-01-11T18:34:55.253Z,100913.88
2019-01-11T18:39:59.335Z,100918.63
2019-01-11T18:45:03.879Z,100919.06
2019-01-11T18:50:11.484Z,100923.17
2019-01-11T18:55:15.585Z,100921.92
2019-01-11T19:00:21.227Z,100918.91
2019-01-11T19:05:25.238Z,100919.39
2019-01-11T19:10:30.516Z,100926.92
2019-01-11T19:15:34.558Z,100926.44
2019-01-11T19:20:38.606Z,100932.27
2019-01-11T19:25:42.663Z,100944.71
2019-01-11T19:30:46.706Z,100937.26
2019-01-11T19:35:50.836Z,100934.93
2019-01-11T19:40:54.929Z,100944.98
2019-01-11T19:45:58.943Z,100942.33
2019-01-11T19:51:03.644Z,100959.72
2019-01-11T19:56:08.074Z,100950.02
2019-01-11T20:01:12.174Z,100946.27
2019-01-11T20:06:16.489Z,100959.34
2019-01-11T20:11:20.738Z,100956.53
2019-01-11T20:16:24.941Z,100953.22
2019-01-11T20:21:29.467Z,100959.46
2019-01-11T20:26:33.872Z,100953.79
2019-01-11T20:31:38.396Z,100951.63
2019-01-11T20:36:50.252Z,100963.92
2019-01-11T20:41:54.823Z,100962.39
2019-01-11T20:46:59.486Z,100964.08
2019-01-11T20:52:04.153Z,100963.48
2019-01-11T20:57:08.274Z,100966.73
2019-01-11T21:02:12.469Z,100970.91
2019-01-11T21:07:16.582Z,100967.08
2019-01-11T21:12:22.172Z,100972.47
2019-01-11T21:17:27.084Z,100985.78
2019-01-11T21:22:32.752Z,100973.41
2019-01-11T21:27:37.220Z,100965.87
2019-01-11T21:32:41.358Z,100976.58
2019-01-11T21:37:45.875Z,100983.34
2019-01-11T21:42:50.760Z,100977.30
2019-01-11T21:47:55.191Z,100979.87
2019-01-11T21:52:59.420Z,100982.64
2019-01-11T21:58:04.463Z,100986.38
2019-01-11T22:03:12.672Z,100987.23
2019-01-11T22:08:17.307Z,100994.41
2019-01-11T22:13:22.209Z,100999.49
2019-01-11T22:18:26.765Z,101005.50
2019-01-11T22:23:31.123Z,101010.18
2019-01-11T22:28:35.285Z,101022.19
2019-01-11T22:33:39.740Z,101012.74
2019-01-11T22:38:44.232Z,101008.86
2019-01-11T22:43:48.332Z,101013.49
2019-01-11T22:48:52.534Z,101009.03
2019-01-11T22:53:56.890Z,101006.61
2019-01-11T22:59:01.136Z,101005.98
2019-01-11T23:04:05.759Z,101005.14
2019-01-11T23:09:12.873Z,101009.87
2019-01-11T23:14:16.931Z,101019.30
2019-01-11T23:19:21.043Z,101030.50
2019-01-11T23:24:25.374Z,101021.67
2019-01-11T23:29:29.478Z,101026.03
2019-01-11T23:34:33.520Z,101027.84
2019-01-11T23:39:37.637Z,101042.34
2019-01-11T23:44:41.714Z,101034.28
2019-01-11T23:49:45.938Z,101039.23
2019-01-11T23:54:50.009Z,101046.70
2019-01-11T23:59:54.062Z,101054.55
